createdAt,value
2022-08-22T00:02:43.020Z,2.60
2022-08-22T00:02:55.897Z,2.35
2022-08-22T00:24:48.824Z,3.97
2022-08-22T00:35:05.694Z,3.53
2022-08-22T00:44:28.866Z,3.83
2022-08-22T00:53:54.561Z,3.50
2022-08-22T01:04:47.481Z,3.25
2022-08-22T01:46:20.719Z,4.50
2022-08-22T01:49:50.601Z,5.40
2022-08-22T02:03:31.799Z,4.38
2022-08-22T02:13:59.526Z,4.38
2022-08-22T02:31:52.353Z,3.83
2022-08-22T02:51:27.533Z,4.10
2022-08-22T02:55:01.999Z,4.88
2022-08-22T03:45:38.418Z,5.60
2022-08-22T04:42:49.696Z,5.13
2022-08-22T04:47:46.055Z,4.10
2022-08-22T04:50:34.607Z,5.65
2022-08-22T05:19:29.608Z,4.47
2022-08-22T05:22:08.450Z,3.63
2022-08-22T05:24:47.128Z,4.25
2022-08-22T05:27:35.289Z,4.38
2022-08-22T05:33:10.883Z,4.20
2022-08-22T05:36:06.984Z,4.72
2022-08-22T05:38:50.990Z,4.95
2022-08-22T05:41:23.456Z,4.47
2022-08-22T05:44:05.561Z,4.47
2022-08-22T05:49:48.438Z,5.65
2022-08-22T05:52:52.387Z,5.32
2022-08-22T05:55:30.234Z,5.63
2022-08-22T05:58:22.957Z,4.43
2022-08-22T06:01:21.946Z,5.10
2022-08-22T06:04:05.159Z,6.35
2022-08-22T06:06:48.909Z,6.60
2022-08-22T06:09:35.293Z,5.90
2022-08-22T06:12:16.472Z,6.45
2022-08-22T06:15:02.735Z,6.25
2022-08-22T06:17:49.114Z,6.75
2022-08-22T06:20:42.290Z,6.22
2022-08-22T06:23:25.048Z,5.22
2022-08-22T06:25:59.978Z,5.25
2022-08-22T06:28:33.623Z,6.07
2022-08-22T06:31:08.377Z,5.38
2022-08-22T06:33:46.131Z,4.70
2022-08-22T06:36:33.972Z,5.13
2022-08-22T06:39:18.640Z,4.55
2022-08-22T06:42:07.827Z,4.53
2022-08-22T06:44:47.864Z,4.82
2022-08-22T06:50:21.588Z,4.50
2022-08-22T06:52:58.125Z,4.75
2022-08-22T06:55:33.147Z,5.05
2022-08-22T07:01:11.222Z,4.78
2022-08-22T07:03:50.142Z,4.65
2022-08-22T07:06:35.872Z,4.63
2022-08-22T07:09:32.125Z,4.20
2022-08-22T07:12:03.781Z,4.53
2022-08-22T07:14:54.386Z,4.30
2022-08-22T07:17:23.841Z,4.32
2022-08-22T07:20:13.368Z,4.18
2022-08-22T07:23:03.285Z,4.65
2022-08-22T07:25:50.941Z,5.10
2022-08-22T07:28:51.493Z,5.35
2022-08-22T07:31:38.217Z,4.97
2022-08-22T07:34:37.884Z,5.65
2022-08-22T07:37:17.676Z,5.47
2022-08-22T07:39:54.579Z,5.53
2022-08-22T07:42:32.804Z,5.72
2022-08-22T07:45:08.673Z,5.60
2022-08-22T07:47:58.195Z,5.53
2022-08-22T07:50:32.192Z,5.45
2022-08-22T07:56:33.153Z,6.45
2022-08-22T08:02:05.716Z,6.72
2022-08-22T08:05:06.039Z,6.28
2022-08-22T08:10:40.941Z,6.07
2022-08-22T08:13:17.034Z,6.70
2022-08-22T08:16:04.226Z,6.93
2022-08-22T08:18:40.949Z,6.72
2022-08-22T08:21:40.604Z,5.65
2022-08-22T08:24:12.677Z,6.07
2022-08-22T08:26:52.489Z,5.47
2022-08-22T08:29:31.984Z,4.85
2022-08-22T08:32:20.221Z,4.20
2022-08-22T08:35:01.213Z,5.10
2022-08-22T08:37:45.202Z,3.83
2022-08-22T08:40:51.104Z,2.63
2022-08-22T08:43:38.924Z,3.03
2022-08-22T08:46:56.460Z,2.65
2022-08-22T08:49:50.649Z,2.70
2022-08-22T08:56:01.912Z,2.45
2022-08-22T08:59:03.228Z,2.60
2022-08-22T09:02:23.899Z,2.72
2022-08-22T09:05:20.751Z,2.88
2022-08-22T09:08:32.404Z,2.85
2022-08-22T09:11:42.664Z,2.63
2022-08-22T09:14:44.344Z,2.53
2022-08-22T09:17:58.225Z,2.00
2022-08-22T09:21:04.371Z,2.55
2022-08-22T09:29:08.217Z,1.98
2022-08-22T09:33:56.303Z,1.75
2022-08-22T09:43:24.178Z,2.10
2022-08-22T09:46:32.027Z,1.88
2022-08-22T09:49:52.589Z,2.75
2022-08-22T10:02:43.866Z,1.75
2022-08-22T10:05:44.294Z,1.83
2022-08-22T10:15:22.647Z,1.40
2022-08-22T10:24:59.899Z,1.30
2022-08-22T10:28:29.485Z,1.60
2022-08-22T10:45:54.831Z,1.90
2022-08-22T10:55:31.660Z,1.92
2022-08-22T11:05:30.569Z,1.70
2022-08-22T11:12:01.827Z,1.65
2022-08-22T11:15:34.933Z,2.25
2022-08-22T11:18:57.949Z,1.58
2022-08-22T11:22:40.229Z,1.77
2022-08-22T11:25:45.242Z,1.83
2022-08-22T11:29:16.657Z,1.50
2022-08-22T11:32:19.746Z,1.73
2022-08-22T11:38:03.041Z,1.67
2022-08-22T11:40:44.025Z,1.95
2022-08-22T11:43:38.446Z,2.10
2022-08-22T11:46:24.363Z,1.98
2022-08-22T11:49:26.857Z,1.58
2022-08-22T11:52:22.714Z,1.45
2022-08-22T11:55:14.255Z,1.50
2022-08-22T11:57:45.019Z,1.60
2022-08-22T12:00:39.482Z,2.20
2022-08-22T12:03:25.266Z,2.10
2022-08-22T12:06:01.349Z,1.70
2022-08-22T12:09:05.617Z,1.92
2022-08-22T12:11:43.361Z,2.17
2022-08-22T12:14:27.127Z,1.80
2022-08-22T12:17:08.798Z,2.22
2022-08-22T12:20:12.848Z,1.83
2022-08-22T12:23:21.618Z,2.13
2022-08-22T12:26:22.145Z,2.63
2022-08-22T12:29:03.329Z,1.88
2022-08-22T12:31:36.882Z,1.90
2022-08-22T12:34:14.896Z,1.85
2022-08-22T12:37:16.688Z,1.92
2022-08-22T12:40:06.160Z,2.15
2022-08-22T12:42:52.454Z,2.10
2022-08-22T12:45:35.465Z,2.25
2022-08-22T12:48:21.826Z,1.75
2022-08-22T12:50:52.912Z,1.67
2022-08-22T12:53:38.575Z,1.70
2022-08-22T12:56:18.583Z,1.83
2022-08-22T12:59:18.323Z,2.63
2022-08-22T13:01:47.943Z,1.95
2022-08-22T13:04:32.449Z,1.95
2022-08-22T13:07:18.369Z,1.90
2022-08-22T13:09:52.380Z,1.70
2022-08-22T13:12:27.595Z,1.50
2022-08-22T13:15:05.545Z,1.48
2022-08-22T13:17:37.875Z,1.42
2022-08-22T13:20:12.553Z,1.77
2022-08-22T13:22:45.257Z,1.40
2022-08-22T13:25:25.504Z,1.90
2022-08-22T13:27:54.959Z,1.92
2022-08-22T13:30:30.148Z,1.48
2022-08-22T13:33:04.421Z,1.40
2022-08-22T13:35:44.599Z,1.55
2022-08-22T13:38:26.173Z,1.50
2022-08-22T13:40:56.945Z,1.67
2022-08-22T13:43:27.224Z,1.77
2022-08-22T13:45:56.620Z,1.37
2022-08-22T13:48:44.472Z,2.00
2022-08-22T13:51:23.179Z,1.35
2022-08-22T13:54:00.769Z,1.60
2022-08-22T13:56:38.141Z,1.10
2022-08-22T13:59:25.302Z,1.40
2022-08-22T14:02:06.890Z,1.90
2022-08-22T14:04:39.373Z,2.13
2022-08-22T14:07:27.590Z,1.52
2022-08-22T14:09:58.318Z,2.00
2022-08-22T14:12:33.560Z,2.45
2022-08-22T14:15:21.498Z,1.95
2022-08-22T14:17:51.892Z,2.30
2022-08-22T14:20:32.071Z,1.73
2022-08-22T14:23:06.946Z,1.67
2022-08-22T14:25:35.996Z,1.50
2022-08-22T14:28:09.443Z,1.70
2022-08-22T14:30:59.356Z,1.60
2022-08-22T14:33:35.585Z,1.30
2022-08-22T14:36:19.136Z,1.73
2022-08-22T14:38:51.643Z,1.33
2022-08-22T14:41:56.183Z,1.75
2022-08-22T14:44:23.333Z,1.73
2022-08-22T14:46:53.631Z,1.63
2022-08-22T14:49:28.656Z,1.67
2022-08-22T14:52:04.745Z,1.80
2022-08-22T14:54:32.828Z,1.67
2022-08-22T14:57:10.087Z,1.45
2022-08-22T14:59:50.373Z,1.88
2022-08-22T15:02:25.858Z,1.42
2022-08-22T15:04:54.338Z,1.73
2022-08-22T15:07:24.216Z,1.90
2022-08-22T15:09:54.856Z,1.65
2022-08-22T15:12:27.058Z,1.83
2022-08-22T15:14:58.169Z,1.63
2022-08-22T15:20:08.882Z,1.75
2022-08-22T15:22:39.445Z,1.25
2022-08-22T15:25:15.873Z,1.70
2022-08-22T15:27:48.790Z,1.65
2022-08-22T15:30:18.844Z,1.77
2022-08-22T15:32:50.476Z,1.65
2022-08-22T15:35:29.952Z,1.80
2022-08-22T15:40:48.288Z,1.52
2022-08-22T15:43:46.853Z,1.60
2022-08-22T15:46:39.683Z,1.20
2022-08-22T15:49:13.307Z,2.00
2022-08-22T15:51:52.490Z,1.63
2022-08-22T15:54:25.623Z,1.30
2022-08-22T15:57:25.637Z,1.40
2022-08-22T16:02:53.543Z,1.58
2022-08-22T16:05:27.340Z,1.55
2022-08-22T16:08:03.222Z,1.48
2022-08-22T16:10:35.110Z,1.48
2022-08-22T16:13:14.824Z,1.58
2022-08-22T16:19:27.667Z,1.70
2022-08-22T16:22:45.666Z,1.65
2022-08-22T16:25:46.719Z,1.58
2022-08-22T16:31:59.803Z,1.30
2022-08-22T16:35:04.033Z,1.80
2022-08-22T16:38:19.423Z,1.80
2022-08-22T16:41:39.576Z,1.65
2022-08-22T16:55:13.049Z,2.10
2022-08-22T16:58:15.892Z,1.65
2022-08-22T17:01:10.905Z,1.75
2022-08-22T17:03:52.720Z,1.58
2022-08-22T17:06:51.806Z,2.10
2022-08-22T17:10:14.724Z,1.98
2022-08-22T17:13:18.556Z,1.60
2022-08-22T17:16:22.181Z,1.73
2022-08-22T17:19:58.285Z,1.80
2022-08-22T17:22:44.989Z,1.90
2022-08-22T17:25:46.120Z,2.03
2022-08-22T17:28:40.791Z,2.03
2022-08-22T17:31:33.132Z,1.58
2022-08-22T18:05:35.661Z,1.27
2022-08-22T18:29:53.537Z,2.10
2022-08-22T18:39:47.356Z,2.10
2022-08-22T18:42:27.113Z,2.38
2022-08-22T18:45:13.259Z,2.75
2022-08-22T18:48:07.028Z,2.30
2022-08-22T18:51:11.521Z,2.75
2022-08-22T18:54:36.486Z,2.47
2022-08-22T18:57:49.529Z,2.53
2022-08-22T19:00:59.086Z,3.15
2022-08-22T19:03:59.566Z,2.65
2022-08-22T19:07:08.024Z,2.70
2022-08-22T19:10:30.378Z,2.83
2022-08-22T19:16:18.139Z,2.65
2022-08-22T19:19:30.598Z,3.00
2022-08-22T19:22:24.575Z,2.80
2022-08-22T19:25:31.904Z,2.50
2022-08-22T19:28:38.615Z,3.08
2022-08-22T19:34:47.156Z,3.13
2022-08-22T19:37:34.170Z,2.90
2022-08-22T19:40:08.037Z,2.88
2022-08-22T19:42:50.781Z,3.13
2022-08-22T19:45:32.886Z,2.67
2022-08-22T19:51:28.990Z,3.20
2022-08-22T19:57:10.161Z,3.47
2022-08-22T20:00:33.462Z,2.50
2022-08-22T20:03:11.020Z,2.72
2022-08-22T20:05:56.647Z,2.53
2022-08-22T20:08:59.070Z,3.10
2022-08-22T20:11:56.705Z,2.30
2022-08-22T20:14:33.099Z,3.20
2022-08-22T20:17:18.638Z,2.72
2022-08-22T20:22:54.218Z,2.88
2022-08-22T20:25:42.560Z,2.95
2022-08-22T20:28:48.896Z,3.00
2022-08-22T20:31:33.413Z,2.83
2022-08-22T20:34:03.664Z,2.78
2022-08-22T20:36:40.489Z,3.42
2022-08-22T20:39:20.774Z,3.33
2022-08-22T20:42:02.915Z,3.13
2022-08-22T20:44:40.158Z,3.28
2022-08-22T20:47:22.954Z,3.22
2022-08-22T20:49:58.642Z,2.80
2022-08-22T20:52:31.357Z,3.42
2022-08-22T20:55:05.344Z,3.15
2022-08-22T20:57:34.924Z,3.00
2022-08-22T21:00:15.788Z,3.60
2022-08-22T21:03:00.551Z,2.88
2022-08-22T21:05:45.122Z,3.22
2022-08-22T21:08:21.145Z,3.00
2022-08-22T21:11:03.008Z,3.20
2022-08-22T21:13:41.530Z,3.25
2022-08-22T21:16:22.454Z,3.17
2022-08-22T21:18:55.234Z,3.10
2022-08-22T21:21:37.930Z,3.40
2022-08-22T21:24:10.671Z,3.58
2022-08-22T21:26:49.546Z,3.70
2022-08-22T21:29:25.309Z,4.13
2022-08-22T21:32:15.083Z,3.67
2022-08-22T21:34:56.486Z,3.67
2022-08-22T21:37:31.222Z,3.67
2022-08-22T21:40:15.711Z,3.78
2022-08-22T21:43:00.049Z,4.32
2022-08-22T21:45:39.932Z,3.92
2022-08-22T21:48:47.869Z,3.92
2022-08-22T21:51:30.886Z,4.43
2022-08-22T21:54:50.580Z,4.00
2022-08-22T21:57:38.613Z,3.60
2022-08-22T22:00:11.751Z,4.00
2022-08-22T22:02:53.801Z,4.18
2022-08-22T22:05:39.637Z,3.97
2022-08-22T22:08:36.722Z,3.50
2022-08-22T22:11:21.202Z,3.65
2022-08-22T22:14:03.653Z,4.18
2022-08-22T22:16:43.815Z,4.78
2022-08-22T22:19:11.238Z,3.88
2022-08-22T22:21:51.189Z,3.60
2022-08-22T22:24:25.444Z,3.90
2022-08-22T22:27:00.872Z,3.75
2022-08-22T22:29:45.079Z,3.42
2022-08-22T22:32:15.097Z,3.33
2022-08-22T22:34:44.988Z,4.00
2022-08-22T22:37:33.153Z,3.55
2022-08-22T22:40:16.690Z,3.40
2022-08-22T22:42:57.463Z,2.95
2022-08-22T22:45:30.343Z,3.70
2022-08-22T22:48:09.471Z,3.13
2022-08-22T22:50:45.412Z,3.60
2022-08-22T22:53:43.038Z,3.47
2022-08-22T22:56:49.509Z,3.83
2022-08-22T22:59:25.690Z,3.10
2022-08-22T23:02:21.490Z,3.70
2022-08-22T23:05:13.892Z,3.10
2022-08-22T23:07:56.805Z,3.22
2022-08-22T23:10:34.561Z,3.30
2022-08-22T23:14:55.195Z,3.00
2022-08-22T23:25:13.596Z,3.55
2022-08-22T23:28:14.146Z,3.33
2022-08-22T23:31:32.778Z,3.13
2022-08-22T23:34:41.553Z,2.65
2022-08-22T23:37:13.400Z,3.00
2022-08-22T23:40:07.540Z,3.08
2022-08-22T23:48:37.133Z,4.05
2022-08-22T23:54:10.719Z,3.88
2022-08-22T23:58:00.328Z,3.72
